createdAt,value
2016-03-04T00:00:10.866Z,996.25
2016-03-04T00:01:10.838Z,996.29
2016-03-04T00:02:10.810Z,996.3
2016-03-04T00:03:10.797Z,996.28
2016-03-04T00:04:10.769Z,996.29
2016-03-04T00:05:10.740Z,996.26
2016-03-04T00:06:10.710Z,996.29
2016-03-04T00:07:10.698Z,996.27
2016-03-04T00:08:10.669Z,996.24
2016-03-04T00:09:10.641Z,996.24
2016-03-04T00:10:10.613Z,996.22
2016-03-04T00:11:10.585Z,996.21
2016-03-04T00:12:10.571Z,996.24
2016-03-04T00:13:10.543Z,996.24
2016-03-04T00:14:10.514Z,996.22
2016-03-04T00:15:10.501Z,996.23
2016-03-04T00:16:10.473Z,996.22
2016-03-04T00:17:10.443Z,996.19
2016-03-04T00:18:10.415Z,996.18
2016-03-04T00:19:10.418Z,996.19
2016-03-04T00:20:10.373Z,996.18
2016-03-04T00:21:10.361Z,996.15
2016-03-04T00:22:10.332Z,996.16
2016-03-04T00:23:10.303Z,996.17
2016-03-04T00:24:10.275Z,996.15
2016-03-04T00:25:10.247Z,996.15
2016-03-04T00:26:10.218Z,996.13
2016-03-04T00:27:10.190Z,996.13
2016-03-04T00:28:10.176Z,996.09
2016-03-04T00:29:10.148Z,996.12
2016-03-04T00:30:10.119Z,996.11
2016-03-04T00:31:10.096Z,996.11
2016-03-04T00:32:10.071Z,996.12
2016-03-04T00:33:10.043Z,996.14
2016-03-04T00:34:10.015Z,996.14
2016-03-04T00:35:10.002Z,996.12
2016-03-04T00:36:09.974Z,996.11
2016-03-04T00:37:09.945Z,996.11
2016-03-04T00:38:09.931Z,996.08
2016-03-04T00:39:09.903Z,996.06
2016-03-04T00:40:09.876Z,996.05
2016-03-04T00:41:09.862Z,996.05
2016-03-04T00:42:09.818Z,996.02
2016-03-04T00:43:09.804Z,996.03
2016-03-04T00:44:09.776Z,996.04
2016-03-04T00:45:09.747Z,996.04
2016-03-04T00:46:09.719Z,996.04
2016-03-04T00:47:09.706Z,996.01
2016-03-04T00:48:09.678Z,995.97
2016-03-04T00:49:09.775Z,995.95
2016-03-04T00:50:09.620Z,995.89
2016-03-04T00:51:09.608Z,995.88
2016-03-04T00:52:09.578Z,995.86
2016-03-04T00:53:09.551Z,995.91
2016-03-04T00:54:09.522Z,995.88
2016-03-04T00:55:09.525Z,995.85
2016-03-04T00:56:09.481Z,995.88
2016-03-04T00:57:09.484Z,995.89
2016-03-04T00:58:09.424Z,995.85
2016-03-04T00:59:09.427Z,995.89
2016-03-04T01:00:09.383Z,995.86
2016-03-04T01:01:09.354Z,995.85
2016-03-04T01:02:09.325Z,995.87
2016-03-04T01:03:09.297Z,995.82
2016-03-04T01:04:09.269Z,995.84
2016-03-04T01:05:09.255Z,995.79
2016-03-04T01:06:09.228Z,995.75
2016-03-04T01:07:09.199Z,995.77
2016-03-04T01:08:09.655Z,995.78
2016-03-04T01:09:09.157Z,995.73
2016-03-04T01:10:09.128Z,995.75
2016-03-04T01:11:09.100Z,995.75
2016-03-04T01:12:09.072Z,995.74
2016-03-04T01:13:09.058Z,995.71
2016-03-04T01:14:09.046Z,995.7
2016-03-04T01:15:09.002Z,995.72
2016-03-04T01:16:08.973Z,995.72
2016-03-04T01:17:08.960Z,995.74
2016-03-04T01:18:08.932Z,995.71
2016-03-04T01:19:09.027Z,995.74
2016-03-04T01:20:08.889Z,995.68
2016-03-04T01:21:08.862Z,995.71
2016-03-04T01:22:08.832Z,995.68
2016-03-04T01:23:08.804Z,995.66
2016-03-04T01:24:08.790Z,995.64
2016-03-04T01:25:08.747Z,995.65
2016-03-04T01:26:08.734Z,995.65
2016-03-04T01:27:08.706Z,995.67
2016-03-04T01:28:08.676Z,995.61
2016-03-04T01:29:08.664Z,995.59
2016-03-04T01:30:08.636Z,995.61
2016-03-04T01:31:08.606Z,995.61
2016-03-04T01:32:08.578Z,995.64
2016-03-04T01:33:08.550Z,995.62
2016-03-04T01:34:08.537Z,995.58
2016-03-04T01:35:08.508Z,995.6
2016-03-04T01:36:08.480Z,995.54
2016-03-04T01:37:08.466Z,995.55
2016-03-04T01:38:08.422Z,995.52
2016-03-04T01:39:08.409Z,995.46
2016-03-04T01:40:08.381Z,995.52
2016-03-04T01:41:08.352Z,995.53
2016-03-04T01:42:08.324Z,995.51
2016-03-04T01:43:08.310Z,995.49
2016-03-04T01:44:08.282Z,995.49
2016-03-04T01:45:08.254Z,995.46
2016-03-04T01:46:08.225Z,995.46
2016-03-04T01:47:08.213Z,995.49
2016-03-04T01:48:08.184Z,995.42
2016-03-04T01:49:08.155Z,995.38
2016-03-04T01:50:08.127Z,995.43
2016-03-04T01:51:08.113Z,995.38
2016-03-04T01:52:08.084Z,995.32
2016-03-04T01:53:08.057Z,995.35
2016-03-04T01:54:08.029Z,995.31
2016-03-04T01:55:07.999Z,995.29
2016-03-04T01:56:07.986Z,995.24
2016-03-04T01:57:07.958Z,995.3
2016-03-04T01:58:07.929Z,995.34
2016-03-04T01:59:07.916Z,995.32
2016-03-04T02:00:07.872Z,995.33
2016-03-04T02:01:07.859Z,995.29
2016-03-04T02:02:07.831Z,995.35
2016-03-04T02:03:07.802Z,995.34
2016-03-04T02:04:07.774Z,995.36
2016-03-04T02:05:07.761Z,995.34
2016-03-04T02:06:07.732Z,995.31
2016-03-04T02:07:07.703Z,995.32
2016-03-04T02:08:07.690Z,995.34
2016-03-04T02:09:07.661Z,995.32
2016-03-04T02:10:07.633Z,995.34
2016-03-04T02:11:07.604Z,995.35
2016-03-04T02:12:07.576Z,995.32
2016-03-04T02:13:07.563Z,995.31
2016-03-04T02:14:07.549Z,995.32
2016-03-04T02:15:07.506Z,995.33
2016-03-04T02:16:07.696Z,995.31
2016-03-04T02:17:07.465Z,995.27
2016-03-04T02:18:07.435Z,995.27
2016-03-04T02:19:07.407Z,995.24
2016-03-04T02:20:07.379Z,995.26
2016-03-04T02:21:07.350Z,995.26
2016-03-04T02:22:07.321Z,995.24
2016-03-04T02:23:07.308Z,995.24
2016-03-04T02:24:07.280Z,995.22
2016-03-04T02:25:07.251Z,995.18
2016-03-04T02:26:07.239Z,995.23
2016-03-04T02:27:07.199Z,995.19
2016-03-04T02:28:07.186Z,995.21
2016-03-04T02:29:07.157Z,995.17
2016-03-04T02:30:07.129Z,995.14
2016-03-04T02:31:07.100Z,995.15
2016-03-04T02:32:07.088Z,995.11
2016-03-04T02:33:07.058Z,995.09
2016-03-04T02:34:07.030Z,995.1
2016-03-04T02:35:07.002Z,995.07
2016-03-04T02:36:06.974Z,995.09
2016-03-04T02:37:06.960Z,995.13
2016-03-04T02:38:06.932Z,995.05
2016-03-04T02:39:06.903Z,995.08
2016-03-04T02:40:06.874Z,995.06
2016-03-04T02:41:06.862Z,995.02
2016-03-04T02:42:06.832Z,994.99
2016-03-04T02:43:06.804Z,995.03
2016-03-04T02:44:06.776Z,995.03
2016-03-04T02:45:06.762Z,995.01
2016-03-04T02:46:06.750Z,994.99
2016-03-04T02:47:06.706Z,994.96
2016-03-04T02:48:06.677Z,994.96
2016-03-04T02:49:06.648Z,994.93
2016-03-04T02:50:06.636Z,994.9
2016-03-04T02:51:06.623Z,994.92
2016-03-04T02:52:06.578Z,994.91
2016-03-04T02:53:06.550Z,994.93
2016-03-04T02:54:06.552Z,994.88
2016-03-04T02:55:06.508Z,994.89
2016-03-04T02:56:06.480Z,994.91
2016-03-04T02:57:06.467Z,994.89
2016-03-04T02:58:06.423Z,994.88
2016-03-04T02:59:06.410Z,994.86
2016-03-04T03:00:06.381Z,994.85
2016-03-04T03:01:06.353Z,994.85
2016-03-04T03:02:06.341Z,994.83
2016-03-04T03:03:06.311Z,994.81
2016-03-04T03:04:06.283Z,994.8
2016-03-04T03:05:06.254Z,994.8
2016-03-04T03:06:06.226Z,994.79
2016-03-04T03:07:06.196Z,994.79
2016-03-04T03:08:06.184Z,994.77
2016-03-04T03:09:06.155Z,994.75
2016-03-04T03:10:06.127Z,994.71
2016-03-04T03:11:06.099Z,994.74
2016-03-04T03:12:06.085Z,994.67
2016-03-04T03:13:06.275Z,994.67
2016-03-04T03:14:06.028Z,994.67
2016-03-04T03:15:06.001Z,994.63
2016-03-04T03:16:05.971Z,994.6
2016-03-04T03:17:05.958Z,994.52
2016-03-04T03:18:05.929Z,994.54
2016-03-04T03:19:05.901Z,994.55
2016-03-04T03:20:05.872Z,994.48
2016-03-04T03:21:05.859Z,994.52
2016-03-04T03:22:05.862Z,994.46
2016-03-04T03:23:05.803Z,994.51
2016-03-04T03:24:05.774Z,994.48
2016-03-04T03:25:05.761Z,994.42
2016-03-04T03:26:05.732Z,994.48
2016-03-04T03:27:05.703Z,994.44
2016-03-04T03:28:05.676Z,994.4
2016-03-04T03:29:05.647Z,994.34
2016-03-04T03:30:05.634Z,994.34
2016-03-04T03:31:05.605Z,994.35
2016-03-04T03:32:05.577Z,994.3
2016-03-04T03:33:05.548Z,994.29
2016-03-04T03:34:05.519Z,994.25
2016-03-04T03:35:05.507Z,994.23
2016-03-04T03:36:05.478Z,994.25
2016-03-04T03:37:05.449Z,994.23
2016-03-04T03:38:05.421Z,994.2
2016-03-04T03:39:05.407Z,994.21
2016-03-04T03:40:05.379Z,994.18
2016-03-04T03:41:05.352Z,994.15
2016-03-04T03:42:05.323Z,994.11
2016-03-04T03:43:05.294Z,994.09
2016-03-04T03:44:05.281Z,994.06
2016-03-04T03:45:05.252Z,993.99
2016-03-04T03:46:05.223Z,993.95
2016-03-04T03:47:05.211Z,993.93
2016-03-04T03:48:05.182Z,993.88
2016-03-04T03:49:05.154Z,993.87
2016-03-04T03:50:05.126Z,993.88
2016-03-04T03:51:05.097Z,993.83
2016-03-04T03:52:05.083Z,993.83
2016-03-04T03:53:05.055Z,993.81
2016-03-04T03:54:05.027Z,993.78
2016-03-04T03:55:04.997Z,993.82
2016-03-04T03:56:04.969Z,993.78
2016-03-04T03:57:04.956Z,993.74
2016-03-04T03:58:04.928Z,993.72
2016-03-04T03:59:04.899Z,993.7
2016-03-04T04:00:04.871Z,993.65
2016-03-04T04:01:04.858Z,993.67
2016-03-04T04:02:04.829Z,993.6
2016-03-04T04:03:04.800Z,993.65
2016-03-04T04:04:04.772Z,993.62
2016-03-04T04:05:04.759Z,993.57
2016-03-04T04:06:04.730Z,993.53
2016-03-04T04:07:04.702Z,993.51
2016-03-04T04:08:04.674Z,993.52
2016-03-04T04:09:04.661Z,993.51
2016-03-04T04:10:04.663Z,993.47
2016-03-04T04:11:04.604Z,993.49
2016-03-04T04:12:04.590Z,993.47
2016-03-04T04:13:04.546Z,993.52
2016-03-04T04:14:04.533Z,993.47
2016-03-04T04:15:04.505Z,993.46
2016-03-04T04:16:04.477Z,993.44
2016-03-04T04:17:04.463Z,993.38
2016-03-04T04:18:04.435Z,993.43
2016-03-04T04:19:04.406Z,993.39
2016-03-04T04:20:04.378Z,993.42
2016-03-04T04:21:04.348Z,993.39
2016-03-04T04:22:04.321Z,993.37
2016-03-04T04:23:04.323Z,993.31
2016-03-04T04:24:04.279Z,993.31
2016-03-04T04:25:04.250Z,993.3
2016-03-04T04:26:04.237Z,993.29
2016-03-04T04:27:04.208Z,993.3
2016-03-04T04:28:04.181Z,993.25
2016-03-04T04:29:04.153Z,993.28
2016-03-04T04:30:04.123Z,993.27
2016-03-04T04:31:04.094Z,993.25
2016-03-04T04:32:04.082Z,993.22
2016-03-04T04:33:04.053Z,993.2
2016-03-04T04:34:04.024Z,993.19
2016-03-04T04:35:03.996Z,993.14
2016-03-04T04:36:03.968Z,993.12
2016-03-04T04:37:03.955Z,993.09
2016-03-04T04:38:03.926Z,993.08
2016-03-04T04:39:03.913Z,993.11
2016-03-04T04:40:03.868Z,993.08
2016-03-04T04:41:03.856Z,993.03
2016-03-04T04:42:03.827Z,993.05
2016-03-04T04:43:03.798Z,993.04
2016-03-04T04:44:03.771Z,993.04
2016-03-04T04:45:03.757Z,993.02
2016-03-04T04:46:03.729Z,992.99
2016-03-04T04:47:03.700Z,992.99
2016-03-04T04:48:03.672Z,992.98
2016-03-04T04:49:03.643Z,992.93
2016-03-04T04:50:03.631Z,992.93
2016-03-04T04:51:03.601Z,992.88
2016-03-04T04:52:03.573Z,992.86
2016-03-04T04:53:03.545Z,992.85
2016-03-04T04:54:03.531Z,992.84
2016-03-04T04:55:03.501Z,992.84
2016-03-04T04:56:03.943Z,992.85
2016-03-04T04:57:03.461Z,992.83
2016-03-04T04:58:03.416Z,992.77
2016-03-04T04:59:03.404Z,992.75
2016-03-04T05:00:03.390Z,992.7
2016-03-04T05:01:03.346Z,992.7
2016-03-04T05:02:03.317Z,992.69
2016-03-04T05:03:03.289Z,992.69
2016-03-04T05:04:03.277Z,992.64
2016-03-04T05:05:03.248Z,992.63
2016-03-04T05:06:03.282Z,992.62
2016-03-04T05:07:03.190Z,992.58
2016-03-04T05:08:03.162Z,992.61
2016-03-04T05:09:03.149Z,992.65
2016-03-04T05:10:03.121Z,992.62
2016-03-04T05:11:03.092Z,992.66
2016-03-04T05:12:03.064Z,992.66
2016-03-04T05:13:03.034Z,992.64
2016-03-04T05:14:03.022Z,992.63
2016-03-04T05:15:02.993Z,992.63
2016-03-04T05:16:02.965Z,992.58
2016-03-04T05:17:02.937Z,992.59
2016-03-04T05:18:02.923Z,992.56
2016-03-04T05:19:02.895Z,992.53
2016-03-04T05:20:02.866Z,992.48
2016-03-04T05:21:02.853Z,992.49
2016-03-04T05:22:02.825Z,992.53
2016-03-04T05:23:02.797Z,992.54
2016-03-04T05:24:02.768Z,992.48
2016-03-04T05:25:02.739Z,992.48
2016-03-04T05:26:02.726Z,992.47
2016-03-04T05:27:02.697Z,992.46
2016-03-04T05:28:02.668Z,992.53
2016-03-04T05:29:02.641Z,992.48
2016-03-04T05:30:02.644Z,992.44
2016-03-04T05:31:02.583Z,992.4
2016-03-04T05:32:02.571Z,992.4
2016-03-04T05:33:02.542Z,992.32
2016-03-04T05:34:02.513Z,992.33
2016-03-04T05:35:02.501Z,992.29
2016-03-04T05:36:02.471Z,992.35
2016-03-04T05:37:02.459Z,992.3
2016-03-04T05:38:02.415Z,992.27
2016-03-04T05:39:02.386Z,992.29
2016-03-04T05:40:02.373Z,992.2
2016-03-04T05:41:02.344Z,992.21
2016-03-04T05:42:02.317Z,992.22
2016-03-04T05:43:02.288Z,992.2
2016-03-04T05:44:02.259Z,992.15
2016-03-04T05:45:02.246Z,992.18
2016-03-04T05:46:02.217Z,992.14
2016-03-04T05:47:02.189Z,992.14
2016-03-04T05:48:02.160Z,992.14
2016-03-04T05:49:02.147Z,992.16
2016-03-04T05:50:02.119Z,992.13
2016-03-04T05:51:02.091Z,992.11
2016-03-04T05:52:02.061Z,992.17
2016-03-04T05:53:02.033Z,992.14
2016-03-04T05:54:02.004Z,992.09
2016-03-04T05:55:01.992Z,992.13
2016-03-04T05:56:01.963Z,992.12
2016-03-04T05:57:01.935Z,992.06
2016-03-04T05:58:01.906Z,992.07
2016-03-04T05:59:01.893Z,992.02
2016-03-04T06:00:01.865Z,992.03
2016-03-04T06:01:01.835Z,992.02
2016-03-04T06:02:01.807Z,991.98
2016-03-04T06:03:01.794Z,991.97
2016-03-04T06:04:01.766Z,992.02
2016-03-04T06:05:01.738Z,991.96
2016-03-04T06:06:01.709Z,991.98
2016-03-04T06:07:01.696Z,991.95
2016-03-04T06:08:01.664Z,991.9
2016-03-04T06:09:01.639Z,991.94
2016-03-04T06:10:01.582Z,991.86
2016-03-04T06:11:01.557Z,991.87
2016-03-04T06:12:01.500Z,991.89
2016-03-04T06:13:01.491Z,991.9
2016-03-04T06:14:01.442Z,991.87
2016-03-04T06:15:01.409Z,991.88
2016-03-04T06:16:01.376Z,991.85
2016-03-04T06:17:01.359Z,991.82
2016-03-04T06:18:01.327Z,991.78
2016-03-04T06:19:01.296Z,991.81
2016-03-04T06:20:01.266Z,991.73
2016-03-04T06:21:01.251Z,991.7
2016-03-04T06:22:01.221Z,991.67
2016-03-04T06:23:01.191Z,991.66
2016-03-04T06:24:01.162Z,991.62
2016-03-04T06:25:01.132Z,991.61
2016-03-04T06:26:01.119Z,991.58
2016-03-04T06:27:01.090Z,991.52
2016-03-04T06:28:01.060Z,991.48
2016-03-04T06:29:01.032Z,991.49
2016-03-04T06:30:01.019Z,991.47
2016-03-04T06:31:01.007Z,991.49
2016-03-04T06:32:00.962Z,991.47
2016-03-04T06:33:00.934Z,991.49
2016-03-04T06:34:00.920Z,991.51
2016-03-04T06:35:00.892Z,991.52
2016-03-04T06:36:00.864Z,991.46
2016-03-04T06:37:00.835Z,991.48
2016-03-04T06:38:00.806Z,991.42
2016-03-04T06:39:00.793Z,991.45
2016-03-04T06:40:00.765Z,991.44
2016-03-04T06:41:00.736Z,991.41
2016-03-04T06:42:00.708Z,991.37
2016-03-04T06:43:00.679Z,991.42
2016-03-04T06:44:00.651Z,991.28
2016-03-04T06:45:00.638Z,991.34
2016-03-04T06:46:00.609Z,991.33
2016-03-04T06:47:00.580Z,991.33
2016-03-04T06:48:00.552Z,991.33
2016-03-04T06:49:00.538Z,991.35
2016-03-04T06:50:00.511Z,991.27
2016-03-04T06:51:00.483Z,991.29
2016-03-04T06:52:00.469Z,991.26
2016-03-04T06:53:00.441Z,991.28
2016-03-04T06:54:00.427Z,991.19
2016-03-04T06:55:00.383Z,991.2
2016-03-04T06:56:00.355Z,991.1
2016-03-04T06:57:00.326Z,991.11
2016-03-04T06:58:00.313Z,991.14
2016-03-04T06:59:00.285Z,991.11
2016-03-04T07:00:00.256Z,991.06
2016-03-04T07:01:00.462Z,991.05
2016-03-04T07:02:00.214Z,991.08
2016-03-04T07:03:00.187Z,991.04
2016-03-04T07:04:00.157Z,991.05
2016-03-04T07:05:00.129Z,990.97
2016-03-04T07:06:00.116Z,990.98
2016-03-04T07:07:00.104Z,990.97
2016-03-04T07:08:00.059Z,990.99
2016-03-04T07:09:00.030Z,990.94
2016-03-04T07:10:00.017Z,990.91
2016-03-04T07:10:59.989Z,990.85
2016-03-04T07:11:59.961Z,990.91
2016-03-04T07:12:59.932Z,990.91
2016-03-04T07:13:59.904Z,990.87
2016-03-04T07:14:59.906Z,990.85
2016-03-04T07:15:59.861Z,990.81
2016-03-04T07:16:59.833Z,990.77
2016-03-04T07:17:59.820Z,990.77
2016-03-04T07:18:59.791Z,990.66
2016-03-04T07:19:59.763Z,990.68
2016-03-04T07:20:59.735Z,990.63
2016-03-04T07:21:59.738Z,990.62
2016-03-04T07:22:59.693Z,990.6
2016-03-04T07:23:59.680Z,990.59
2016-03-04T07:24:59.667Z,990.58
2016-03-04T07:25:59.623Z,990.55
2016-03-04T07:26:59.626Z,990.54
2016-03-04T07:27:59.565Z,990.52
2016-03-04T07:28:59.537Z,990.49
2016-03-04T07:29:59.509Z,990.56
2016-03-04T07:30:59.495Z,990.48
2016-03-04T07:31:59.468Z,990.47
2016-03-04T07:32:59.438Z,990.4
2016-03-04T07:33:59.410Z,990.41
2016-03-04T07:34:59.382Z,990.4
2016-03-04T07:35:59.368Z,990.41
2016-03-04T07:36:59.559Z,990.36
2016-03-04T07:37:59.311Z,990.34
2016-03-04T07:38:59.284Z,990.37
2016-03-04T07:39:59.270Z,990.34
2016-03-04T07:40:59.242Z,990.32
2016-03-04T07:41:59.212Z,990.25
2016-03-04T07:42:59.184Z,990.28
2016-03-04T07:43:59.172Z,990.32
2016-03-04T07:44:59.142Z,990.25
2016-03-04T07:45:59.115Z,990.27
2016-03-04T07:46:59.101Z,990.26
2016-03-04T07:47:59.057Z,990.21
2016-03-04T07:48:59.044Z,990.2
2016-03-04T07:49:59.016Z,990.2
2016-03-04T07:50:58.986Z,990.2
2016-03-04T07:51:58.958Z,990.16
2016-03-04T07:52:58.945Z,990.14
2016-03-04T07:53:58.917Z,990.17
2016-03-04T07:54:58.904Z,990.11
2016-03-04T07:55:58.860Z,990.14
2016-03-04T07:56:58.847Z,990.15
2016-03-04T07:57:59.068Z,990.16
2016-03-04T07:58:58.790Z,990.15
2016-03-04T07:59:58.777Z,990.09
2016-03-04T08:00:58.749Z,990.1
2016-03-04T08:01:58.720Z,990.07
2016-03-04T08:02:58.690Z,990.09
2016-03-04T08:03:58.679Z,989.99
2016-03-04T08:04:58.649Z,990.06
2016-03-04T08:05:58.621Z,990.01
2016-03-04T08:06:58.593Z,989.99
2016-03-04T08:07:58.564Z,990.02
2016-03-04T08:08:58.535Z,989.98
2016-03-04T08:09:58.522Z,989.92
2016-03-04T08:10:58.495Z,989.95
2016-03-04T08:11:58.465Z,989.89
2016-03-04T08:12:58.452Z,989.93
2016-03-04T08:13:58.423Z,989.84
2016-03-04T08:14:58.395Z,989.85
2016-03-04T08:15:58.367Z,989.84
2016-03-04T08:16:58.339Z,989.85
2016-03-04T08:17:58.326Z,989.84
2016-03-04T08:18:58.297Z,989.84
2016-03-04T08:19:58.283Z,989.78
2016-03-04T08:20:58.286Z,989.71
2016-03-04T08:21:58.227Z,989.7
2016-03-04T08:22:58.214Z,989.62
2016-03-04T08:23:58.169Z,989.51
2016-03-04T08:24:58.172Z,989.5
2016-03-04T08:25:58.127Z,989.46
2016-03-04T08:26:58.099Z,989.4
2016-03-04T08:27:58.071Z,989.45
2016-03-04T08:28:58.043Z,989.42
2016-03-04T08:29:58.029Z,989.33
2016-03-04T08:30:58.001Z,989.37
2016-03-04T08:31:57.972Z,989.31
2016-03-04T08:32:57.943Z,989.27
2016-03-04T08:33:57.931Z,989.25
2016-03-04T08:34:57.902Z,989.21
2016-03-04T08:35:57.873Z,989.25
2016-03-04T08:36:57.845Z,989.2
2016-03-04T08:37:57.832Z,989.19
2016-03-04T08:38:57.804Z,989.19
2016-03-04T08:39:57.775Z,989.17
2016-03-04T08:40:57.746Z,989.15
2016-03-04T08:41:57.734Z,989.18
2016-03-04T08:42:57.705Z,989.08
2016-03-04T08:43:57.676Z,989.15
2016-03-04T08:44:57.648Z,989.16
2016-03-04T08:45:57.634Z,989.11
2016-03-04T08:46:57.606Z,989.08
2016-03-04T08:47:57.578Z,989.04
2016-03-04T08:48:57.550Z,988.98
2016-03-04T08:49:57.536Z,988.92
2016-03-04T08:50:57.508Z,988.89
2016-03-04T08:51:57.480Z,988.85
2016-03-04T08:52:57.450Z,988.83
2016-03-04T08:53:57.437Z,988.82
2016-03-04T08:54:57.409Z,988.89
2016-03-04T08:55:57.380Z,988.95
2016-03-04T08:56:57.352Z,988.84
2016-03-04T08:57:57.339Z,988.82
2016-03-04T08:58:57.310Z,988.88
2016-03-04T08:59:57.297Z,988.74
2016-03-04T09:00:57.269Z,988.77
2016-03-04T09:01:57.240Z,988.83
2016-03-04T09:02:57.212Z,988.87
2016-03-04T09:03:57.182Z,988.86
2016-03-04T09:04:57.155Z,988.86
2016-03-04T09:05:57.142Z,988.79
2016-03-04T09:06:57.114Z,988.74
2016-03-04T09:07:57.086Z,988.78
2016-03-04T09:08:57.057Z,988.74
2016-03-04T09:09:57.044Z,988.62
2016-03-04T09:10:57.016Z,988.62
2016-03-04T09:11:56.987Z,988.62
2016-03-04T09:12:56.975Z,988.63
2016-03-04T09:13:56.946Z,988.66
2016-03-04T09:14:56.917Z,988.64
2016-03-04T09:15:56.888Z,988.57
2016-03-04T09:16:56.860Z,988.56
2016-03-04T09:17:56.846Z,988.59
2016-03-04T09:18:56.818Z,988.5
2016-03-04T09:19:56.789Z,988.45
2016-03-04T09:20:56.777Z,988.42
2016-03-04T09:21:56.748Z,988.43
2016-03-04T09:22:56.720Z,988.4
2016-03-04T09:23:56.691Z,988.46
2016-03-04T09:24:56.662Z,988.43
2016-03-04T09:25:56.650Z,988.36
2016-03-04T09:26:56.621Z,988.32
2016-03-04T09:27:56.592Z,988.27
2016-03-04T09:28:56.579Z,988.29
2016-03-04T09:29:56.551Z,988.32
2016-03-04T09:30:56.553Z,988.27
2016-03-04T09:31:56.510Z,988.27
2016-03-04T09:32:56.481Z,988.3
2016-03-04T09:33:56.452Z,988.21
2016-03-04T09:34:56.424Z,988.3
2016-03-04T09:35:56.395Z,988.22
2016-03-04T09:36:56.383Z,988.21
2016-03-04T09:37:56.353Z,988.25
2016-03-04T09:38:56.325Z,988.17
2016-03-04T09:39:56.297Z,988.14
2016-03-04T09:40:56.284Z,988.09
2016-03-04T09:41:56.255Z,988.13
2016-03-04T09:42:56.227Z,988.1
2016-03-04T09:43:56.213Z,988.08
2016-03-04T09:44:56.185Z,988.05
2016-03-04T09:45:56.204Z,988.03
2016-03-04T09:46:56.143Z,987.97
2016-03-04T09:47:56.115Z,987.95
2016-03-04T09:48:56.087Z,987.92
2016-03-04T09:49:56.058Z,987.94
2016-03-04T09:50:56.093Z,988
2016-03-04T09:51:56.016Z,987.78
2016-03-04T09:52:55.987Z,987.84
2016-03-04T09:53:55.960Z,987.79
2016-03-04T09:54:55.931Z,987.77
2016-03-04T09:55:55.917Z,987.77
2016-03-04T09:56:55.890Z,987.77
2016-03-04T09:57:55.861Z,987.76
2016-03-04T09:58:55.832Z,987.76
2016-03-04T09:59:55.820Z,987.71
2016-03-04T10:00:55.790Z,987.77
2016-03-04T10:01:55.778Z,987.75
2016-03-04T10:02:55.750Z,987.7
2016-03-04T10:03:55.720Z,987.66
2016-03-04T10:04:55.691Z,987.68
2016-03-04T10:05:55.664Z,987.65
2016-03-04T10:06:55.650Z,987.67
2016-03-04T10:07:55.622Z,987.67
2016-03-04T10:08:55.594Z,987.73
2016-03-04T10:09:55.580Z,987.73
2016-03-04T10:10:55.552Z,987.69
2016-03-04T10:11:55.524Z,987.69
2016-03-04T10:12:55.494Z,987.69
2016-03-04T10:13:55.466Z,987.56
2016-03-04T10:14:55.453Z,987.54
2016-03-04T10:15:55.424Z,987.55
2016-03-04T10:16:55.397Z,987.47
2016-03-04T10:17:55.383Z,987.35
2016-03-04T10:18:55.354Z,987.34
2016-03-04T10:19:55.327Z,987.35
2016-03-04T10:20:55.298Z,987.26
2016-03-04T10:21:55.284Z,987.34
2016-03-04T10:22:55.257Z,987.31
2016-03-04T10:23:55.243Z,987.39
2016-03-04T10:24:55.230Z,987.38
2016-03-04T10:25:55.186Z,987.39
2016-03-04T10:26:55.157Z,987.44
2016-03-04T10:27:55.129Z,987.38
2016-03-04T10:28:55.115Z,987.28
2016-03-04T10:29:55.087Z,987.11
2016-03-04T10:30:55.058Z,987.14
2016-03-04T10:31:55.031Z,987.22
2016-03-04T10:32:55.017Z,987.07
2016-03-04T10:33:54.989Z,987.06
2016-03-04T10:34:54.961Z,987.01
2016-03-04T10:35:54.947Z,986.93
2016-03-04T10:36:54.919Z,987.02
2016-03-04T10:37:54.890Z,986.96
2016-03-04T10:38:54.892Z,986.96
2016-03-04T10:39:54.833Z,986.92
2016-03-04T10:40:54.820Z,986.93
2016-03-04T10:41:54.791Z,986.87
2016-03-04T10:42:54.778Z,986.87
2016-03-04T10:43:54.734Z,986.8
2016-03-04T10:44:54.722Z,986.84
2016-03-04T10:45:54.693Z,986.76
2016-03-04T10:46:54.663Z,986.79
2016-03-04T10:47:54.699Z,986.77
2016-03-04T10:48:54.623Z,986.71
2016-03-04T10:49:54.594Z,986.67
2016-03-04T10:50:54.566Z,986.67
2016-03-04T10:51:54.553Z,986.66
2016-03-04T10:52:54.524Z,986.62
2016-03-04T10:53:54.496Z,986.64
2016-03-04T10:54:54.467Z,986.61
2016-03-04T10:55:54.454Z,986.61
2016-03-04T10:56:54.426Z,986.58
2016-03-04T10:57:54.398Z,986.64
2016-03-04T10:58:54.368Z,986.68
2016-03-04T10:59:54.355Z,986.61
2016-03-04T11:00:54.343Z,986.51
2016-03-04T11:01:54.298Z,986.45
2016-03-04T11:02:54.300Z,986.52
2016-03-04T11:03:54.257Z,986.54
2016-03-04T11:04:54.229Z,986.57
2016-03-04T11:05:54.215Z,986.52
2016-03-04T11:06:54.171Z,986.47
2016-03-04T11:07:54.159Z,986.46
2016-03-04T11:08:54.130Z,986.49
2016-03-04T11:09:54.100Z,986.37
2016-03-04T11:10:54.089Z,986.38
2016-03-04T11:11:54.060Z,986.47
2016-03-04T11:12:54.031Z,986.4
2016-03-04T11:13:54.003Z,986.4
2016-03-04T11:14:53.989Z,986.35
2016-03-04T11:15:53.961Z,986.41
2016-03-04T11:16:53.932Z,986.22
2016-03-04T11:17:53.904Z,986.22
2016-03-04T11:18:53.891Z,986.21
2016-03-04T11:19:53.862Z,986.22
2016-03-04T11:20:53.835Z,986.2
2016-03-04T11:21:53.821Z,986.11
2016-03-04T11:22:53.807Z,986.19
2016-03-04T11:23:53.811Z,986.15
2016-03-04T11:24:53.735Z,986.13
2016-03-04T11:25:53.723Z,986.16
2016-03-04T11:26:53.693Z,986.19
2016-03-04T11:27:53.666Z,986.11
2016-03-04T11:28:53.637Z,986.08
2016-03-04T11:29:53.623Z,986.11
2016-03-04T11:30:53.595Z,986.12
2016-03-04T11:31:53.567Z,986.11
2016-03-04T11:32:53.537Z,985.97
2016-03-04T11:33:53.525Z,986.01
2016-03-04T11:34:53.497Z,985.98
2016-03-04T11:35:53.468Z,985.93
2016-03-04T11:36:53.439Z,985.86
2016-03-04T11:37:53.426Z,985.96
2016-03-04T11:38:53.398Z,985.89
2016-03-04T11:39:53.369Z,985.9
2016-03-04T11:40:53.356Z,985.88
2016-03-04T11:41:53.344Z,985.91
2016-03-04T11:42:53.300Z,985.78
2016-03-04T11:43:53.286Z,985.83
2016-03-04T11:44:53.382Z,985.75
2016-03-04T11:45:53.230Z,985.81
2016-03-04T11:46:53.200Z,985.79
2016-03-04T11:47:53.172Z,985.77
2016-03-04T11:48:53.160Z,985.8
2016-03-04T11:49:53.131Z,985.8
2016-03-04T11:50:53.102Z,985.81
2016-03-04T11:51:53.073Z,985.72
2016-03-04T11:52:53.061Z,985.7
2016-03-04T11:53:53.048Z,985.69
2016-03-04T11:54:53.003Z,985.79
2016-03-04T11:55:52.974Z,985.79
2016-03-04T11:56:52.962Z,985.78
2016-03-04T11:57:52.934Z,985.73
2016-03-04T11:58:52.904Z,985.76
2016-03-04T11:59:52.892Z,985.86
2016-03-04T12:00:52.879Z,985.81
2016-03-04T12:01:52.834Z,985.8
2016-03-04T12:02:52.822Z,985.75
2016-03-04T12:03:52.793Z,985.79
2016-03-04T12:04:52.765Z,985.67
2016-03-04T12:05:52.736Z,985.73
2016-03-04T12:06:52.723Z,985.7
2016-03-04T12:07:52.694Z,985.65
2016-03-04T12:08:52.666Z,985.69
2016-03-04T12:09:52.653Z,985.67
2016-03-04T12:10:52.640Z,985.72
2016-03-04T12:11:52.596Z,985.63
2016-03-04T12:12:52.567Z,985.6
2016-03-04T12:13:52.539Z,985.52
2016-03-04T12:14:52.525Z,985.58
2016-03-04T12:15:52.497Z,985.58
2016-03-04T12:16:52.469Z,985.64
2016-03-04T12:17:52.472Z,985.56
2016-03-04T12:18:52.411Z,985.47
2016-03-04T12:19:52.399Z,985.51
2016-03-04T12:20:52.386Z,985.61
2016-03-04T12:21:52.341Z,985.38
2016-03-04T12:22:52.329Z,985.44
2016-03-04T12:23:52.299Z,985.43
2016-03-04T12:24:52.272Z,985.45
2016-03-04T12:25:52.243Z,985.37
2016-03-04T12:26:52.229Z,985.37
2016-03-04T12:27:52.202Z,985.31
2016-03-04T12:28:52.173Z,985.27
2016-03-04T12:29:52.160Z,985.25